Time;durP1;ratioP1;P1;durP2;ratioP2;P2;SDS_P1;SDS_P2;PMS_P1;PMS_P2;Temp;Humidity;BMP_temperature;BMP_pressure;BME280_temperature;BME280_humidity;BME280_pressure;Samples;Min_cycle;Max_cycle;Signal;HPM_P1;HPM_P2
2023/08/13 00:02:07;;;;;;;3.67;1.60;;;;;;;29.74;32.06;96747.31;5027914;28;20025;-29
2023/08/13 00:04:33;;;;;;;2.58;1.38;;;;;;;29.78;31.99;96753.31;5022513;28;20061;-29
2023/08/13 00:07:01;;;;;;;2.72;1.75;;;;;;;29.56;31.95;96746.22;5023583;28;20029;-29
2023/08/13 00:09:27;;;;;;;2.33;1.27;;;;;;;29.52;31.89;96748.63;5015959;28;20018;-29
2023/08/13 00:11:56;;;;;;;4.40;1.55;;;;;;;29.65;32.08;96746.50;5022051;28;20490;-29
2023/08/13 00:14:21;;;;;;;2.90;1.65;;;;;;;29.60;31.86;96750.19;5021201;28;20101;-29
2023/08/13 00:16:47;;;;;;;1.88;1.33;;;;;;;29.64;32.11;96747.81;5015622;28;20465;-28
2023/08/13 00:19:13;;;;;;;3.08;1.45;;;;;;;29.55;32.49;96742.69;5024024;28;20437;-28
2023/08/13 00:21:39;;;;;;;2.25;1.50;;;;;;;29.59;32.05;96739.53;5023193;28;20450;-30
2023/08/13 00:24:05;;;;;;;2.42;1.95;;;;;;;29.65;32.08;96735.31;5021335;28;20022;-29
2023/08/13 00:26:30;;;;;;;2.30;1.40;;;;;;;29.46;32.53;96740.38;5014073;28;20026;-28
2023/08/13 00:28:55;;;;;;;1.50;1.38;;;;;;;29.46;32.55;96740.38;5021930;28;20389;-29
2023/08/13 00:31:21;;;;;;;2.03;1.50;;;;;;;29.48;32.39;96731.44;5020043;28;20474;-29
2023/08/13 00:33:46;;;;;;;3.72;1.48;;;;;;;29.44;32.71;96731.03;5020503;28;20397;-28
2023/08/13 00:36:12;;;;;;;2.35;1.30;;;;;;;29.70;32.32;96732.91;5020603;28;20018;-29
2023/08/13 00:38:37;;;;;;;2.38;1.35;;;;;;;29.33;33.00;96736.88;5020728;28;20112;-29
2023/08/13 00:41:03;;;;;;;4.00;2.10;;;;;;;29.38;33.14;96730.44;5021210;28;20021;-29
2023/08/13 00:43:28;;;;;;;2.35;1.35;;;;;;;29.63;32.97;96726.72;5023914;28;20018;-29
2023/08/13 00:45:54;;;;;;;2.15;1.50;;;;;;;29.62;32.50;96725.22;5024365;28;20025;-30
2023/08/13 00:48:20;;;;;;;1.85;1.60;;;;;;;29.62;32.57;96721.69;5015451;28;20037;-29
2023/08/13 00:50:46;;;;;;;2.03;1.40;;;;;;;29.60;32.76;96721.47;5023644;28;20099;-29
2023/08/13 00:53:13;;;;;;;4.43;1.60;;;;;;;29.71;32.80;96726.78;5022289;28;20462;-30
2023/08/13 00:55:38;;;;;;;2.47;1.67;;;;;;;29.52;32.97;96721.44;5023894;28;20400;-30
2023/08/13 00:58:04;;;;;;;3.63;1.70;;;;;;;29.47;33.27;96724.34;5024249;28;20032;-29
2023/08/13 01:00:32;;;;;;;2.70;1.58;;;;;;;29.53;32.92;96722.19;5014374;28;20168;-29
2023/08/13 01:02:58;;;;;;;2.00;1.40;;;;;;;29.35;33.38;96723.84;5025428;28;20381;-30
2023/08/13 01:05:34;;;;;;;4.30;1.52;;;;;;;29.46;33.29;96714.47;5015817;28;20026;-30
2023/08/13 01:08:13;;;;;;;2.22;1.42;;;;;;;29.42;33.57;96712.03;5031291;28;20026;-29
2023/08/13 01:10:41;;;;;;;3.00;1.50;;;;;;;29.54;33.29;96718.84;5021381;28;20032;-29
2023/08/13 01:13:20;;;;;;;2.10;1.52;;;;;;;29.67;33.53;96714.47;5020647;28;20160;-29
2023/08/13 01:15:46;;;;;;;2.92;1.50;;;;;;;29.59;33.41;96715.16;5020967;28;20017;-29
2023/08/13 01:18:13;;;;;;;1.95;1.60;;;;;;;29.49;33.59;96718.97;5019851;28;20018;-29
2023/08/13 01:20:41;;;;;;;3.00;1.77;;;;;;;29.38;33.83;96717.22;5027223;28;20029;-30
2023/08/13 01:23:07;;;;;;;2.40;1.42;;;;;;;29.48;33.89;96709.09;5023135;28;20113;-29
2023/08/13 01:25:33;;;;;;;2.35;1.60;;;;;;;29.62;33.92;96713.31;5024190;28;20112;-30
2023/08/13 01:28:12;;;;;;;2.88;1.75;;;;;;;29.75;33.48;96698.50;5018562;28;20033;-28
2023/08/13 01:30:40;;;;;;;2.78;1.40;;;;;;;29.56;33.90;96699.47;5020855;28;20022;-29
2023/08/13 01:33:08;;;;;;;2.72;1.50;;;;;;;29.50;34.14;96703.72;5022973;28;20104;-29
2023/08/13 01:35:35;;;;;;;5.15;1.90;;;;;;;29.49;33.99;96700.16;5024029;28;20019;-28
2023/08/13 01:38:02;;;;;;;3.15;1.95;;;;;;;29.48;34.15;96698.66;5024023;28;20018;-30
2023/08/13 01:40:28;;;;;;;3.45;1.55;;;;;;;29.49;34.07;96699.41;5026826;28;20022;-31
2023/08/13 01:42:54;;;;;;;4.15;1.77;;;;;;;29.54;34.09;96696.50;5026756;28;20033;-30
2023/08/13 01:45:20;;;;;;;1.98;1.58;;;;;;;29.60;34.21;96696.34;5024112;28;20029;-29
2023/08/13 01:47:46;;;;;;;2.85;1.90;;;;;;;29.51;34.17;96697.56;5022264;28;20104;-29
2023/08/13 01:50:12;;;;;;;3.95;1.60;;;;;;;29.55;34.40;96697.97;5018820;28;20049;-29
2023/08/13 01:52:37;;;;;;;4.20;1.88;;;;;;;29.52;34.45;96682.31;5026606;28;20030;-29
2023/08/13 01:55:03;;;;;;;1.92;1.35;;;;;;;29.37;34.57;96689.78;5020127;28;20032;-29
2023/08/13 01:57:29;;;;;;;3.40;1.65;;;;;;;29.35;34.67;96690.34;5030594;28;20083;-29
2023/08/13 01:59:56;;;;;;;2.20;1.70;;;;;;;29.36;34.74;96691.09;5023758;28;20053;-30
2023/08/13 02:02:21;;;;;;;1.67;1.40;;;;;;;29.59;34.33;96680.84;5023345;28;20025;-28
2023/08/13 02:04:46;;;;;;;2.80;1.90;;;;;;;29.42;34.63;96688.94;5023469;28;20056;-30
2023/08/13 02:07:12;;;;;;;2.70;1.67;;;;;;;29.40;34.62;96695.06;5023167;28;20147;-28
2023/08/13 02:09:37;;;;;;;5.43;1.45;;;;;;;29.62;34.40;96683.31;5024886;28;20033;-29
2023/08/13 02:12:03;;;;;;;2.83;1.70;;;;;;;29.58;34.07;96679.34;5026438;28;20480;-28
2023/08/13 02:14:28;;;;;;;1.65;1.40;;;;;;;29.62;34.33;96680.50;5025996;28;20021;-29
2023/08/13 02:16:54;;;;;;;2.45;1.70;;;;;;;29.34;34.44;96683.25;5018660;28;20021;-29
2023/08/13 02:19:19;;;;;;;3.22;1.60;;;;;;;29.57;34.34;96689.78;5021010;28;20471;-32
2023/08/13 02:21:45;;;;;;;3.25;1.83;;;;;;;29.52;34.35;96685.09;5023769;28;20113;-28
2023/08/13 02:24:10;;;;;;;3.38;1.77;;;;;;;29.50;34.17;96684.91;5022914;28;20029;-29
2023/08/13 02:26:36;;;;;;;2.35;1.80;;;;;;;29.42;34.56;96678.50;5023167;28;20021;-29
2023/08/13 02:29:01;;;;;;;3.13;1.63;;;;;;;29.58;34.18;96679.34;5022500;28;20028;-29
2023/08/13 02:31:27;;;;;;;3.42;1.48;;;;;;;29.61;34.15;96673.44;5027759;28;20467;-30
2023/08/13 02:33:52;;;;;;;2.55;1.50;;;;;;;29.46;34.77;96672.56;5016455;28;20359;-29
2023/08/13 02:36:18;;;;;;;2.08;1.60;;;;;;;29.35;34.94;96679.16;5023140;28;20104;-29
2023/08/13 02:38:43;;;;;;;2.50;1.73;;;;;;;29.33;34.90;96673.38;5022999;28;20037;-29
2023/08/13 02:41:09;;;;;;;2.88;1.67;;;;;;;29.22;34.90;96676.44;5022603;28;20148;-28
2023/08/13 02:43:51;;;;;;;2.47;1.70;;;;;;;29.29;35.09;96673.72;5022745;28;20057;-29
2023/08/13 02:46:16;;;;;;;3.40;1.45;;;;;;;29.35;35.00;96676.38;5015550;28;20028;-29
2023/08/13 02:48:42;;;;;;;5.88;1.70;;;;;;;29.34;34.95;96666.50;5022750;28;20046;-28
2023/08/13 02:51:07;;;;;;;4.88;1.80;;;;;;;29.48;34.75;96665.13;5023055;28;20096;-29
2023/08/13 02:53:32;;;;;;;3.05;1.80;;;;;;;29.54;34.76;96668.53;5022657;28;20025;-29
2023/08/13 02:55:58;;;;;;;2.25;1.70;;;;;;;29.49;34.80;96675.03;5021734;28;20079;-29
2023/08/13 02:58:23;;;;;;;3.35;1.65;;;;;;;29.35;35.10;96679.16;5024420;28;20470;-29
2023/08/13 03:00:49;;;;;;;2.00;1.63;;;;;;;29.42;34.98;96670.13;5025882;28;20049;-29
2023/08/13 03:03:14;;;;;;;2.75;1.40;;;;;;;29.36;34.76;96669.50;5018078;28;20358;-29
2023/08/13 03:05:41;;;;;;;2.40;1.73;;;;;;;29.36;34.73;96666.69;5024702;28;20030;-30
2023/08/13 03:08:06;;;;;;;1.90;1.50;;;;;;;29.43;34.67;96666.03;5019120;28;20033;-30
2023/08/13 03:10:32;;;;;;;1.80;1.70;;;;;;;29.28;34.94;96663.84;5022402;28;20421;-29
2023/08/13 03:12:58;;;;;;;3.67;1.75;;;;;;;29.30;35.02;96660.50;5032570;28;20017;-29
2023/08/13 03:15:23;;;;;;;2.35;1.52;;;;;;;29.23;35.36;96658.41;5025605;28;20018;-29
2023/08/13 03:17:49;;;;;;;1.90;1.70;;;;;;;29.25;35.22;96664.19;5022348;28;20030;-30
2023/08/13 03:20:14;;;;;;;5.35;1.80;;;;;;;29.27;35.19;96662.34;5021993;28;20140;-30
2023/08/13 03:22:39;;;;;;;3.10;1.65;;;;;;;29.30;35.09;96664.03;5021770;28;20018;-30
2023/08/13 03:25:05;;;;;;;1.83;1.40;;;;;;;29.32;35.15;96663.50;5018360;28;20022;-29
2023/08/13 03:27:31;;;;;;;4.85;1.85;;;;;;;29.28;35.61;96668.69;5024684;28;20022;-30
2023/08/13 03:29:56;;;;;;;1.80;1.30;;;;;;;29.25;35.36;96664.94;5023128;28;20552;-29
2023/08/13 03:32:21;;;;;;;2.00;1.60;;;;;;;29.18;35.50;96665.59;5027657;28;20466;-29
2023/08/13 03:34:47;;;;;;;5.60;1.73;;;;;;;29.06;35.67;96669.22;5021608;28;20044;-29
2023/08/13 03:37:12;;;;;;;3.08;2.13;;;;;;;29.09;35.61;96670.94;5029388;28;20369;-28
2023/08/13 03:39:38;;;;;;;2.63;1.75;;;;;;;29.12;35.48;96675.44;5021476;28;20030;-29
2023/08/13 03:42:03;;;;;;;5.07;2.15;;;;;;;29.30;35.22;96668.91;5021123;28;20381;-29
2023/08/13 03:44:29;;;;;;;2.67;1.80;;;;;;;29.21;35.36;96672.91;5025138;28;20052;-29
2023/08/13 03:46:54;;;;;;;2.75;1.23;;;;;;;29.22;35.28;96680.00;5018162;28;20109;-30
2023/08/13 03:49:20;;;;;;;2.00;1.73;;;;;;;29.22;35.42;96673.66;5020895;28;20053;-28
2023/08/13 03:51:45;;;;;;;4.03;1.95;;;;;;;29.21;35.34;96674.94;5019726;28;20112;-29
2023/08/13 03:54:11;;;;;;;3.03;1.77;;;;;;;29.24;35.49;96673.84;5015525;28;20017;-29
2023/08/13 03:56:36;;;;;;;1.70;1.52;;;;;;;29.17;35.38;96682.94;5021153;28;20021;-30
2023/08/13 03:59:01;;;;;;;2.95;1.65;;;;;;;29.19;35.61;96686.66;5021724;28;20038;-29
2023/08/13 04:01:27;;;;;;;2.17;1.70;;;;;;;29.28;35.40;96689.00;5021022;28;20053;-28
2023/08/13 04:03:52;;;;;;;3.17;1.73;;;;;;;29.20;35.66;96679.03;5014086;28;20072;-28
2023/08/13 04:06:18;;;;;;;1.92;1.50;;;;;;;29.36;35.36;96686.25;5020806;28;20051;-29
2023/08/13 04:08:43;;;;;;;2.55;1.55;;;;;;;29.16;35.64;96678.66;5017005;28;20464;-29
2023/08/13 04:11:09;;;;;;;2.70;1.60;;;;;;;29.34;35.28;96686.03;5024781;28;20021;-29
2023/08/13 04:13:34;;;;;;;3.15;1.58;;;;;;;29.22;35.54;96682.03;5016288;28;20010;-29
2023/08/13 04:16:00;;;;;;;3.67;1.63;;;;;;;29.38;35.56;96680.16;5024516;28;20458;-28
2023/08/13 04:18:25;;;;;;;5.53;1.80;;;;;;;29.17;35.74;96678.09;5024095;28;20025;-30
2023/08/13 04:20:51;;;;;;;4.85;1.70;;;;;;;29.21;35.60;96686.13;5014074;28;20116;-28
2023/08/13 04:23:16;;;;;;;4.05;1.77;;;;;;;29.32;35.66;96683.03;5021105;28;20076;-29
2023/08/13 04:25:42;;;;;;;2.88;1.67;;;;;;;29.08;36.14;96677.81;5021044;28;20022;-30
2023/08/13 04:28:07;;;;;;;3.22;1.67;;;;;;;29.12;35.82;96684.56;5021296;28;20026;-29
2023/08/13 04:30:33;;;;;;;3.25;1.77;;;;;;;29.12;36.12;96687.34;5020730;28;20025;-29
2023/08/13 04:32:59;;;;;;;2.88;1.70;;;;;;;29.10;36.13;96683.59;5022046;28;20113;-29
2023/08/13 04:35:25;;;;;;;2.33;1.58;;;;;;;29.11;36.29;96688.66;5023942;28;20109;-28
2023/08/13 04:37:51;;;;;;;5.28;1.70;;;;;;;29.29;35.91;96686.94;5023653;28;20030;-28
2023/08/13 04:40:17;;;;;;;3.65;2.13;;;;;;;29.26;36.29;96690.81;5023896;28;20485;-29
2023/08/13 04:42:43;;;;;;;3.42;2.15;;;;;;;29.19;36.17;96683.13;5025902;28;20049;-29
2023/08/13 04:45:09;;;;;;;2.13;1.60;;;;;;;29.11;36.54;96693.47;5027769;28;20029;-29
2023/08/13 04:47:35;;;;;;;5.95;1.70;;;;;;;29.16;36.35;96684.22;5020630;28;20075;-29
2023/08/13 04:50:01;;;;;;;10.32;2.55;;;;;;;28.99;36.95;96689.47;5027247;28;20492;-29
2023/08/13 04:52:26;;;;;;;3.30;1.65;;;;;;;29.29;36.22;96693.28;5020176;28;20489;-28
2023/08/13 04:54:52;;;;;;;2.90;2.03;;;;;;;29.15;36.40;96686.28;5020760;28;20069;-29
2023/08/13 04:57:17;;;;;;;3.95;1.85;;;;;;;28.89;37.16;96687.16;5021011;28;20113;-29
2023/08/13 04:59:43;;;;;;;3.28;1.83;;;;;;;29.09;37.07;96693.28;5013878;28;20018;-29
2023/08/13 05:02:08;;;;;;;1.77;1.55;;;;;;;29.12;36.89;96692.94;5020868;28;20030;-29
2023/08/13 05:04:34;;;;;;;3.45;1.63;;;;;;;29.13;36.81;96696.47;5020016;28;20045;-29
2023/08/13 05:06:59;;;;;;;2.72;1.70;;;;;;;29.11;36.93;96693.47;5017936;28;20025;-28
2023/08/13 05:09:25;;;;;;;2.45;1.77;;;;;;;29.05;37.28;96690.84;5023440;28;20378;-29
2023/08/13 05:11:51;;;;;;;2.03;1.63;;;;;;;29.15;36.94;96685.53;5020908;28;20088;-29
2023/08/13 05:14:16;;;;;;;3.63;1.95;;;;;;;29.26;36.96;96688.78;5020695;28;20477;-28
2023/08/13 05:16:42;;;;;;;2.50;1.60;;;;;;;29.09;37.33;96688.44;5021449;28;20041;-29
2023/08/13 05:19:07;;;;;;;2.25;1.80;;;;;;;29.09;37.30;96684.91;5023435;28;20071;-29
2023/08/13 05:21:33;;;;;;;3.03;1.85;;;;;;;29.21;37.14;96688.91;5022968;28;20014;-28
2023/08/13 05:23:58;;;;;;;4.25;1.80;;;;;;;29.13;37.42;96690.91;5020197;28;20022;-29
2023/08/13 05:26:24;;;;;;;3.30;1.70;;;;;;;29.22;37.21;96693.19;5013707;28;20045;-28
2023/08/13 05:28:49;;;;;;;3.42;1.70;;;;;;;29.18;37.23;96690.00;5020839;28;20025;-29
2023/08/13 05:31:14;;;;;;;3.17;1.70;;;;;;;29.39;36.86;96696.38;5019671;28;20374;-28
2023/08/13 05:33:40;;;;;;;2.63;1.58;;;;;;;29.12;37.40;96686.59;5020257;28;20013;-29
2023/08/13 05:36:05;;;;;;;2.88;2.03;;;;;;;29.10;37.56;96697.56;5019905;28;20061;-29
2023/08/13 05:38:34;;;;;;;3.05;2.00;;;;;;;29.05;37.91;96702.00;5020628;28;20018;-29
2023/08/13 05:41:00;;;;;;;2.92;1.77;;;;;;;29.22;37.52;96702.34;5020389;28;20041;-29
2023/08/13 05:43:25;;;;;;;3.08;1.77;;;;;;;29.17;37.83;96702.50;5020187;28;20018;-29
2023/08/13 05:45:51;;;;;;;3.08;1.70;;;;;;;29.12;38.00;96697.78;5020131;28;20026;-29
2023/08/13 05:48:16;;;;;;;1.70;1.60;;;;;;;29.12;37.54;96704.09;5020956;28;20483;-29
2023/08/13 05:50:41;;;;;;;3.17;1.77;;;;;;;29.34;37.44;96700.00;5026161;28;20030;-29
2023/08/13 05:53:07;;;;;;;3.67;1.92;;;;;;;29.30;37.71;96699.63;5020248;28;20366;-29
2023/08/13 05:55:33;;;;;;;4.63;2.22;;;;;;;29.42;37.53;96706.47;5015268;28;20021;-28
2023/08/13 05:57:58;;;;;;;2.25;1.65;;;;;;;29.33;37.81;96706.13;5023537;28;20025;-29
2023/08/13 06:00:24;;;;;;;3.20;1.95;;;;;;;29.24;38.05;96707.38;5014498;28;20508;-29
2023/08/13 06:02:50;;;;;;;2.10;1.90;;;;;;;29.32;37.95;96705.38;5020054;28;20394;-28
2023/08/13 06:05:15;;;;;;;3.45;1.60;;;;;;;29.38;37.82;96708.09;5021204;28;20022;-29
2023/08/13 06:07:41;;;;;;;2.67;1.73;;;;;;;29.42;37.82;96706.47;5033109;28;20104;-30
2023/08/13 06:10:06;;;;;;;5.85;1.98;;;;;;;29.41;37.89;96704.97;5026806;28;20461;-30
2023/08/13 06:12:33;;;;;;;2.67;1.65;;;;;;;29.34;37.62;96702.81;5025436;28;20022;-30
2023/08/13 06:14:58;;;;;;;5.13;2.15;;;;;;;29.30;37.97;96717.09;5023424;28;20056;-29
2023/08/13 06:17:24;;;;;;;7.75;1.85;;;;;;;29.35;37.78;96709.91;5023556;28;20053;-28
2023/08/13 06:19:50;;;;;;;3.03;1.63;;;;;;;29.44;37.34;96708.69;5024669;28;20034;-29
2023/08/13 06:22:15;;;;;;;2.53;1.52;;;;;;;29.39;37.55;96706.78;5026566;28;20017;-28
2023/08/13 06:24:41;;;;;;;5.15;1.73;;;;;;;29.42;37.70;96714.84;5017979;28;20386;-29
2023/08/13 06:27:06;;;;;;;3.17;1.95;;;;;;;29.42;37.73;96709.25;5030968;28;20048;-29
2023/08/13 06:29:32;;;;;;;3.90;2.00;;;;;;;29.43;37.58;96719.09;5022942;28;20022;-29
2023/08/13 06:31:57;;;;;;;6.30;2.22;;;;;;;29.53;37.53;96711.00;5017100;28;20377;-30
2023/08/13 06:34:23;;;;;;;4.88;2.20;;;;;;;29.30;38.55;96708.00;5026290;28;20028;-29
2023/08/13 06:36:48;;;;;;;4.85;2.05;;;;;;;29.15;38.63;96716.25;5025927;28;20030;-29
2023/08/13 06:39:14;;;;;;;4.05;1.77;;;;;;;29.12;38.69;96715.28;5022787;28;20029;-29
2023/08/13 06:41:39;;;;;;;4.70;2.10;;;;;;;29.09;39.30;96721.19;5015770;28;20028;-29
2023/08/13 06:44:06;;;;;;;3.25;1.98;;;;;;;29.29;38.60;96724.00;5022792;28;20026;-31
2023/08/13 06:46:31;;;;;;;2.30;1.60;;;;;;;29.25;39.20;96720.06;5023300;28;20026;-29
2023/08/13 06:48:57;;;;;;;3.47;1.80;;;;;;;29.54;38.34;96729.28;5021130;28;20099;-29
2023/08/13 06:51:22;;;;;;;2.85;1.80;;;;;;;29.38;38.77;96733.97;5024635;28;20025;-29
2023/08/13 06:53:48;;;;;;;4.53;2.05;;;;;;;29.12;39.12;96726.44;5025952;28;20049;-29
2023/08/13 06:56:13;;;;;;;2.05;1.65;;;;;;;29.28;39.04;96727.34;5024792;28;20036;-29
2023/08/13 06:58:39;;;;;;;4.30;1.77;;;;;;;29.12;39.07;96729.25;5017297;28;20025;-29
2023/08/13 07:01:05;;;;;;;6.93;2.05;;;;;;;29.05;39.01;96734.75;5026290;28;20079;-29
2023/08/13 07:03:31;;;;;;;4.60;1.90;;;;;;;29.38;38.29;96730.44;5023103;28;20476;-29
2023/08/13 07:05:56;;;;;;;6.40;2.63;;;;;;;29.10;39.10;96723.44;5019918;28;20025;-29
2023/08/13 07:08:23;;;;;;;3.08;1.90;;;;;;;29.25;38.56;96737.56;5031932;28;20023;-29
2023/08/13 07:10:49;;;;;;;3.83;1.80;;;;;;;29.14;39.13;96742.66;5018236;28;20100;-29
2023/08/13 07:13:15;;;;;;;3.00;1.85;;;;;;;29.42;38.50;96740.00;5024267;28;20063;-29
2023/08/13 07:15:40;;;;;;;3.92;1.95;;;;;;;29.42;38.46;96739.22;5023421;28;20025;-30
2023/08/13 07:18:07;;;;;;;2.63;2.05;;;;;;;29.19;38.77;96739.72;5021787;28;20076;-29
2023/08/13 07:20:33;;;;;;;3.65;1.65;;;;;;;29.24;38.72;96747.22;5022475;28;20025;-29
2023/08/13 07:23:00;;;;;;;4.00;1.77;;;;;;;29.14;38.66;96746.22;5028616;28;20481;-29
2023/08/13 07:25:26;;;;;;;5.70;1.80;;;;;;;29.43;38.18;96747.03;5021809;28;20109;-28
2023/08/13 07:27:52;;;;;;;4.45;1.58;;;;;;;29.52;38.32;96743.78;5021892;28;20036;-29
2023/08/13 07:30:18;;;;;;;6.45;1.92;;;;;;;29.54;38.11;96752.38;5017690;28;20561;-28
2023/08/13 07:32:44;;;;;;;4.53;1.92;;;;;;;29.66;37.96;96741.66;5024920;28;20113;-29
2023/08/13 07:35:10;;;;;;;2.45;1.70;;;;;;;29.54;37.97;96746.78;5022189;28;20027;-29
2023/08/13 07:37:36;;;;;;;4.80;1.70;;;;;;;29.70;37.69;96744.84;5020380;28;20043;-29
2023/08/13 07:40:07;;;;;;;3.53;2.28;;;;;;;29.81;37.77;96746.59;5023144;28;20040;-29
2023/08/13 07:42:36;;;;;;;4.40;1.70;;;;;;;29.84;38.00;96751.09;5021499;28;20017;-29
2023/08/13 07:45:02;;;;;;;3.35;1.58;;;;;;;29.75;37.73;96746.00;5022382;28;20022;-28
2023/08/13 07:47:31;;;;;;;4.28;2.00;;;;;;;29.89;37.80;96753.00;5018246;28;20017;-28
2023/08/13 07:49:56;;;;;;;2.63;2.10;;;;;;;29.81;38.05;96754.97;5025146;28;20536;-29
2023/08/13 07:52:22;;;;;;;5.03;1.60;;;;;;;29.74;37.88;96736.13;5021676;28;20030;-29
2023/08/13 07:54:47;;;;;;;4.78;2.50;;;;;;;29.80;37.84;96742.31;5026267;28;20048;-28
2023/08/13 07:57:13;;;;;;;3.80;2.50;;;;;;;29.77;38.20;96743.41;5023683;28;20080;-30
2023/08/13 07:59:38;;;;;;;4.88;2.85;;;;;;;29.83;38.29;96749.59;5017252;28;20025;-30
2023/08/13 08:02:04;;;;;;;5.95;2.63;;;;;;;29.82;37.90;96745.31;5017670;28;20051;-29
2023/08/13 08:04:30;;;;;;;6.10;2.30;;;;;;;29.78;38.15;96748.47;5021330;28;20500;-29
2023/08/13 08:06:55;;;;;;;2.10;1.88;;;;;;;29.82;38.03;96754.44;5021234;28;20459;-29
2023/08/13 08:09:21;;;;;;;3.55;1.88;;;;;;;29.78;38.13;96751.25;5021052;28;20036;-29
2023/08/13 08:11:47;;;;;;;4.30;1.70;;;;;;;29.74;37.95;96742.47;5023523;28;20029;-29
2023/08/13 08:14:12;;;;;;;3.13;2.40;;;;;;;29.84;38.00;96751.09;5026000;28;20018;-30
2023/08/13 08:16:38;;;;;;;2.40;2.17;;;;;;;29.77;37.95;96751.81;5020846;28;20436;-29
2023/08/13 08:19:04;;;;;;;2.70;2.00;;;;;;;29.48;38.41;96753.81;5017897;28;20017;-29
2023/08/13 08:21:31;;;;;;;2.67;2.20;;;;;;;29.94;37.47;96761.22;5024983;28;20040;-29
2023/08/13 08:23:56;;;;;;;2.90;1.88;;;;;;;29.82;37.64;96754.44;5020560;28;20025;-29
2023/08/13 08:26:22;;;;;;;5.20;1.90;;;;;;;29.84;38.11;96749.06;5026052;28;20020;-29
2023/08/13 08:28:47;;;;;;;2.63;2.15;;;;;;;29.80;38.12;96750.69;5021733;28;20108;-29
2023/08/13 08:31:13;;;;;;;6.80;3.55;;;;;;;29.89;37.98;96753.00;5024015;28;20475;-30
2023/08/13 08:33:38;;;;;;;5.65;3.20;;;;;;;30.01;37.55;96754.25;5024048;28;20022;-30
2023/08/13 08:36:04;;;;;;;7.03;2.67;;;;;;;29.73;38.22;96754.19;5022865;28;20029;-29
2023/08/13 08:38:29;;;;;;;6.18;2.40;;;;;;;29.94;37.92;96757.69;5024312;28;20067;-29
2023/08/13 08:40:58;;;;;;;4.25;2.15;;;;;;;30.02;37.61;96741.75;5023084;28;20474;-29
2023/08/13 08:43:29;;;;;;;2.90;1.73;;;;;;;29.92;37.73;96744.25;5020675;28;20025;-29
2023/08/13 08:45:57;;;;;;;3.20;1.98;;;;;;;30.02;37.30;96744.56;5020357;28;20049;-29
2023/08/13 08:48:26;;;;;;;11.30;3.35;;;;;;;29.98;37.29;96750.50;5022745;28;20103;-28
2023/08/13 08:50:53;;;;;;;7.07;2.20;;;;;;;29.96;37.10;96749.53;5018405;28;20026;-29
2023/08/13 08:53:20;;;;;;;5.32;2.50;;;;;;;29.92;36.74;96749.13;5020718;28;20018;-29
2023/08/13 08:55:47;;;;;;;4.00;2.25;;;;;;;29.83;36.66;96750.34;5017678;28;20021;-29
2023/08/13 08:58:13;;;;;;;2.72;2.38;;;;;;;29.89;36.63;96748.16;5022639;28;20037;-29
2023/08/13 09:00:38;;;;;;;3.83;1.80;;;;;;;29.95;36.08;96742.41;5020240;28;20026;-29
2023/08/13 09:03:04;;;;;;;2.38;1.35;;;;;;;29.95;35.21;96745.97;5013261;28;20112;-29
2023/08/13 09:05:32;;;;;;;4.03;1.50;;;;;;;29.97;34.71;96746.19;5020360;28;20060;-29
2023/08/13 09:07:57;;;;;;;3.35;1.58;;;;;;;30.02;34.92;96752.94;5013640;28;20030;-29
2023/08/13 09:10:23;;;;;;;1.63;1.30;;;;;;;29.95;34.64;96748.00;5020962;28;20029;-30
2023/08/13 09:12:51;;;;;;;2.92;1.88;;;;;;;29.94;34.92;96749.31;5030257;28;20531;-30
2023/08/13 09:15:17;;;;;;;2.10;1.30;;;;;;;30.04;34.61;96744.75;5023654;28;20017;-29
2023/08/13 09:17:43;;;;;;;1.40;1.20;;;;;;;30.04;34.14;96741.22;5014202;28;20025;-29
2023/08/13 09:20:15;;;;;;;2.10;1.30;;;;;;;30.05;33.44;96748.28;5020294;28;20402;-29
2023/08/13 09:22:44;;;;;;;1.83;1.33;;;;;;;30.04;33.56;96744.75;5020522;28;20021;-29
2023/08/13 09:25:09;;;;;;;2.13;1.30;;;;;;;30.06;33.29;96746.97;5020484;28;20026;-29
2023/08/13 09:27:35;;;;;;;1.88;1.30;;;;;;;30.07;33.55;96740.84;5020194;28;20036;-30
2023/08/13 09:30:00;;;;;;;1.73;1.10;;;;;;;30.07;33.76;96748.47;5020589;28;20030;-30
2023/08/13 09:32:28;;;;;;;3.10;1.50;;;;;;;30.11;33.65;96748.88;5020258;28;20030;-29
2023/08/13 09:34:54;;;;;;;2.80;1.40;;;;;;;30.13;33.27;96743.50;5019610;28;20022;-29
2023/08/13 09:37:23;;;;;;;2.38;1.20;;;;;;;30.15;33.52;96747.25;5016060;28;20120;-29
2023/08/13 09:39:49;;;;;;;1.35;1.25;;;;;;;30.17;33.09;96743.88;5026256;28;20021;-29
2023/08/13 09:42:18;;;;;;;2.15;1.25;;;;;;;30.10;33.86;96750.19;5017060;28;20017;-29
2023/08/13 09:44:44;;;;;;;1.75;1.30;;;;;;;30.18;33.04;96745.38;5024334;28;20036;-29
2023/08/13 09:47:17;;;;;;;1.80;1.38;;;;;;;30.22;33.46;96745.78;5025312;28;20112;-28
2023/08/13 09:49:43;;;;;;;1.85;1.30;;;;;;;30.16;32.97;96737.56;5022127;28;20062;-28
2023/08/13 09:52:11;;;;;;;1.90;1.38;;;;;;;30.25;33.17;96742.63;5023895;28;20114;-28
2023/08/13 09:54:46;;;;;;;1.60;1.30;;;;;;;30.32;33.48;96732.75;5027297;28;20021;-28
2023/08/13 09:57:15;;;;;;;2.28;1.45;;;;;;;30.27;33.06;96725.31;5026368;28;20108;-28
2023/08/13 09:59:41;;;;;;;2.28;1.50;;;;;;;30.29;33.22;96728.28;5026762;28;20021;-29
2023/08/13 10:02:07;;;;;;;4.38;1.40;;;;;;;30.33;32.81;96723.81;5020435;28;20040;-29
2023/08/13 10:04:38;;;;;;;1.52;1.35;;;;;;;30.29;33.49;96720.63;5016471;28;20026;-29
2023/08/13 10:07:05;;;;;;;2.58;1.60;;;;;;;30.35;33.06;96721.22;5026734;28;20493;-29
2023/08/13 10:09:32;;;;;;;2.17;1.30;;;;;;;30.41;33.56;96725.94;5025946;28;20053;-29
2023/08/13 10:11:59;;;;;;;1.90;1.60;;;;;;;30.38;33.11;96727.78;5023294;28;20022;-28
2023/08/13 10:14:26;;;;;;;1.60;1.40;;;;;;;30.38;33.08;96718.63;5023204;28;20426;-29
2023/08/13 10:16:51;;;;;;;1.63;1.52;;;;;;;30.46;32.87;96722.19;5024858;28;20413;-29
2023/08/13 10:19:17;;;;;;;2.80;1.52;;;;;;;30.46;32.93;96719.41;5027985;28;20022;-28
2023/08/13 10:21:54;;;;;;;2.15;1.50;;;;;;;30.48;32.85;96723.16;5023534;28;20102;-28
2023/08/13 10:24:20;;;;;;;2.22;1.50;;;;;;;30.48;32.58;96711.22;5023127;28;20097;-28
2023/08/13 10:26:46;;;;;;;2.97;1.50;;;;;;;30.43;33.18;96718.44;5016905;28;20093;-30
2023/08/13 10:29:16;;;;;;;2.35;1.60;;;;;;;30.56;32.43;96704.34;5026752;28;20484;-29
2023/08/13 10:31:54;;;;;;;3.33;1.50;;;;;;;30.50;32.37;96697.41;5019045;28;20597;-28
2023/08/13 10:34:19;;;;;;;3.72;1.50;;;;;;;30.51;32.66;96701.72;5022724;28;20525;-29
2023/08/13 10:36:53;;;;;;;2.75;1.65;;;;;;;30.55;32.25;96704.91;5021910;28;20050;-29
2023/08/13 10:39:40;;;;;;;3.28;1.85;;;;;;;30.66;32.26;96696.19;5015767;28;20022;-28
2023/08/13 10:42:34;;;;;;;1.55;1.45;;;;;;;30.52;32.26;96689.22;5024092;28;20032;-28
2023/08/13 10:45:06;;;;;;;1.40;1.30;;;;;;;30.62;31.88;96693.75;5025129;28;20022;-29
2023/08/13 10:47:58;;;;;;;4.65;2.08;;;;;;;30.56;32.02;96698.00;5022958;28;20018;-29
2023/08/13 10:50:38;;;;;;;4.88;3.50;;;;;;;30.65;31.99;96698.25;5029473;28;20034;-29
2023/08/13 10:53:21;;;;;;;5.65;2.83;;;;;;;30.67;32.13;96692.06;5024732;28;20449;-29
2023/08/13 10:55:52;;;;;;;5.10;2.78;;;;;;;30.64;32.40;96693.94;5020047;28;20029;-28
2023/08/13 10:58:27;;;;;;;4.32;2.45;;;;;;;30.67;31.54;96692.06;5017500;28;20088;-29
2023/08/13 11:01:12;;;;;;;4.38;2.20;;;;;;;30.67;31.07;96695.63;5028387;28;20030;-30
2023/08/13 11:03:46;;;;;;;3.65;1.95;;;;;;;30.73;30.17;96694.72;5017476;28;20025;-29
2023/08/13 11:06:13;;;;;;;3.00;1.80;;;;;;;30.63;30.42;96683.31;5025988;28;20374;-28
2023/08/13 11:08:40;;;;;;;2.75;1.75;;;;;;;30.71;30.88;96687.59;5016940;28;20029;-29
2023/08/13 11:11:06;;;;;;;3.33;2.03;;;;;;;30.80;30.05;96685.56;5020573;28;20029;-28
2023/08/13 11:13:32;;;;;;;2.22;1.77;;;;;;;30.81;29.71;96689.88;5029777;28;20029;-28
2023/08/13 11:15:57;;;;;;;4.72;1.60;;;;;;;30.77;29.76;96686.69;5018447;28;20021;-28
2023/08/13 11:18:22;;;;;;;3.45;1.75;;;;;;;30.76;29.93;96677.56;5024371;28;20029;-29
2023/08/13 11:20:49;;;;;;;3.88;2.03;;;;;;;30.83;29.63;96685.22;5022369;28;20025;-30
2023/08/13 11:23:17;;;;;;;4.45;2.13;;;;;;;30.84;28.73;96678.31;5025379;28;20033;-28
2023/08/13 11:25:46;;;;;;;2.85;1.80;;;;;;;30.76;28.18;96671.94;5022765;28;20029;-29
2023/08/13 11:28:18;;;;;;;4.53;2.20;;;;;;;30.82;28.33;96675.31;5018747;28;20021;-29
2023/08/13 11:30:43;;;;;;;4.15;2.33;;;;;;;30.84;27.09;96677.56;5017905;28;20026;-29
2023/08/13 11:33:09;;;;;;;3.92;2.03;;;;;;;30.81;26.87;96671.00;5022507;28;20378;-29